| Date | Time | Temp. (oF) | Dew Point (oF) | Rel. Hum. (%) | Press. (in.) | Wind Dir. | Wind Speed (mph) | Hourly Rainfall (in.) |
|
|---|---|---|---|---|---|---|---|---|---|
| 1 | 05/19 | 00:00 | 44 | 35 | 72 | 30.36 | ESE | 0 | 0.00 |
| 2 | 05/18 | 23:00 | 47 | 34 | 62 | 30.35 | ESE | 0 | 0.00 |
| 3 | 05/18 | 22:00 | 49 | 33 | 55 | 30.33 | ENE | 0 | 0.00 |
| 4 | 05/18 | 21:00 | 54 | 30 | 41 | 30.31 | NNE | 1 | 0.00 |
| 5 | 05/18 | 20:00 | 58 | 30 | 35 | 30.29 | N | 2 | 0.00 |
| 6 | 05/18 | 19:00 | 61 | 32 | 35 | 30.27 | NNE | 8 | 0.00 |
| 7 | 05/18 | 18:00 | 60 | 31 | 34 | 30.26 | NNE | 7 | 0.00 |
| 8 | 05/18 | 17:00 | 61 | 32 | 34 | 30.26 | N | 4 | 0.00 |
| 9 | 05/18 | 16:00 | 61 | 32 | 35 | 30.26 | NNW | 4 | 0.00 |
| 10 | 05/18 | 15:00 | 61 | 35 | 38 | 30.27 | N | 7 | 0.00 |
| 11 | 05/18 | 14:00 | 58 | 33 | 40 | 30.27 | ENE | 9 | 0.00 |
| 12 | 05/18 | 13:00 | 56 | 31 | 40 | 30.28 | NE | 5 | 0.00 |
| 13 | 05/18 | 12:00 | 56 | 32 | 41 | 30.29 | NE | 17 | 0.00 |
| 14 | 05/18 | 11:00 | 52 | 30 | 44 | 30.30 | NE | 12 | 0.00 |
| 15 | 05/18 | 10:00 | 51 | 27 | 41 | 30.30 | N | 16 | 0.00 |
| 16 | 05/18 | 09:00 | 50 | 29 | 45 | 30.30 | NE | 8 | 0.00 |
| 17 | 05/18 | 08:00 | 49 | 29 | 47 | 30.28 | N | 1 | 0.00 |
| 18 | 05/18 | 07:00 | 47 | 33 | 60 | 30.27 | WNW | 0 | 0.00 |
| 19 | 05/18 | 06:00 | 47 | 30 | 53 | 30.25 | NNW | 1 | 0.00 |
| 20 | 05/18 | 05:00 | 48 | 30 | 51 | 30.24 | NNW | 2 | 0.00 |
| 21 | 05/18 | 04:00 | 50 | 29 | 46 | 30.24 | NW | 2 | 0.00 |
| 22 | 05/18 | 03:00 | 51 | 29 | 43 | 30.23 | NNE | 3 | 0.00 |
| 23 | 05/18 | 02:00 | 52 | 31 | 45 | 30.21 | N | 5 | 0.00 |
| 24 | 05/18 | 01:00 | 52 | 32 | 48 | 30.20 | NNE | 7 | 0.00 |